Time;durP1;ratioP1;P1;durP2;ratioP2;P2;SDS_P1;SDS_P2;PMS_P1;PMS_P2;Temp;Humidity;BMP_temperature;BMP_pressure;BME280_temperature;BME280_humidity;BME280_pressure;Samples;Min_cycle;Max_cycle;Signal;HPM_P1;HPM_P2
2021/05/10 00:00:50;;;;;;;17.70;8.60;;;;;;;;;;5085484;28;20278;-83
2021/05/10 00:03:20;;;;;;;15.02;8.32;;;;;;;;;;5070403;28;20028;-83
2021/05/10 00:05:46;;;;;;;13.10;8.30;;;;;;;;;;5071280;28;20029;-84
2021/05/10 00:08:13;;;;;;;11.60;7.85;;;;;;;;;;5069751;28;20426;-83
2021/05/10 00:10:40;;;;;;;15.20;8.45;;;;;;;;;;5073722;28;20024;-82
2021/05/10 00:13:07;;;;;;;14.27;8.48;;;;;;;;;;5092756;28;20028;-83
2021/05/10 00:15:33;;;;;;;;;;;;;;;;;;5092929;28;20028;-83
2021/05/10 00:18:02;;;;;;;15.03;9.13;;;;;;;;;;5086679;28;19909;-83
2021/05/10 00:20:32;;;;;;;12.45;7.75;;;;;;;;;;5073156;28;20499;-82
2021/05/10 00:22:59;;;;;;;12.73;8.02;;;;;;;;;;5073640;28;20027;-81
2021/05/10 00:25:25;;;;;;;14.93;8.20;;;;;;;;;;5083274;28;20043;-83
2021/05/10 00:27:51;;;;;;;15.50;8.38;;;;;;;;;;5093984;28;20061;-82
2021/05/10 00:30:17;;;;;;;13.63;8.32;;;;;;;;;;5086327;28;20020;-83
2021/05/10 00:32:44;;;;;;;13.18;8.45;;;;;;;;;;5073412;28;20466;-84
2021/05/10 00:35:10;;;;;;;14.35;7.88;;;;;;;;;;5090042;28;20038;-84
2021/05/10 00:37:36;;;;;;;18.60;8.85;;;;;;;;;;5087130;28;20040;-83
2021/05/10 00:40:03;;;;;;;15.40;8.38;;;;;;;;;;5085336;28;20062;-84
2021/05/10 00:42:29;;;;;;;;;;;;;;;;;;5092908;28;20032;-86
2021/05/10 00:44:55;;;;;;;18.90;7.93;;;;;;;;;;5090186;28;19916;-84
2021/05/10 00:47:21;;;;;;;16.35;8.25;;;;;;;;;;5073094;28;20479;-83
2021/05/10 00:49:47;;;;;;;18.50;8.40;;;;;;;;;;5074601;28;20041;-83
2021/05/10 00:52:13;;;;;;;16.08;7.85;;;;;;;;;;5081364;28;20025;-84
2021/05/10 00:54:39;;;;;;;16.42;8.65;;;;;;;;;;5074368;28;20091;-82
2021/05/10 00:57:05;;;;;;;13.25;7.93;;;;;;;;;;5073104;28;20031;-81
2021/05/10 00:59:31;;;;;;;17.55;8.07;;;;;;;;;;5089735;28;20081;-83
2021/05/10 01:01:57;;;;;;;16.48;7.85;;;;;;;;;;5091464;28;20052;-82
2021/05/10 01:04:23;;;;;;;17.25;8.27;;;;;;;;;;5093273;28;20109;-81
2021/05/10 01:06:49;;;;;;;14.30;7.65;;;;;;;;;;5080643;28;20024;-84
2021/05/10 01:09:15;;;;;;;15.15;7.82;;;;;;;;;;5085827;28;20528;-83
2021/05/10 01:11:41;;;;;;;13.52;7.57;;;;;;;;;;5086598;28;20102;-83
2021/05/10 01:14:07;;;;;;;14.65;7.80;;;;;;;;;;5092815;28;20039;-83
2021/05/10 01:16:33;;;;;;;13.85;7.72;;;;;;;;;;5091330;28;20032;-83
2021/05/10 01:18:59;;;;;;;13.23;7.53;;;;;;;;;;5093180;28;20032;-82
2021/05/10 01:21:26;;;;;;;15.20;7.78;;;;;;;;;;5090520;28;20117;-83
2021/05/10 01:23:52;;;;;;;15.93;7.95;;;;;;;;;;5088222;28;20601;-84
2021/05/10 01:26:18;;;;;;;13.50;7.25;;;;;;;;;;5073323;28;20529;-80
2021/05/10 01:28:44;;;;;;;15.20;7.53;;;;;;;;;;5092077;28;20028;-82
2021/05/10 01:31:13;;;;;;;12.88;7.13;;;;;;;;;;5088320;28;20044;-83
2021/05/10 01:33:39;;;;;;;12.77;7.18;;;;;;;;;;5091167;28;20120;-83
2021/05/10 01:36:05;;;;;;;11.98;6.80;;;;;;;;;;5088834;28;20448;-85
2021/05/10 01:38:31;;;;;;;11.55;7.38;;;;;;;;;;5092361;28;20046;-83
2021/05/10 01:40:57;;;;;;;12.68;7.55;;;;;;;;;;5092301;28;20028;-83
2021/05/10 01:43:23;;;;;;;13.20;7.55;;;;;;;;;;5078543;28;20068;-84
2021/05/10 01:45:49;;;;;;;12.48;6.78;;;;;;;;;;5091162;28;20048;-84
2021/05/10 01:48:15;;;;;;;11.10;7.10;;;;;;;;;;5079689;28;20558;-84
2021/05/10 01:50:43;;;;;;;13.33;6.87;;;;;;;;;;5079985;28;20012;-84
2021/05/10 01:53:10;;;;;;;16.05;7.05;;;;;;;;;;5083841;28;20066;-83
2021/05/10 01:55:36;;;;;;;11.73;6.95;;;;;;;;;;5091898;28;20038;-82
2021/05/10 01:58:03;;;;;;;12.27;6.78;;;;;;;;;;5077889;28;20532;-83
2021/05/10 02:00:28;;;;;;;12.32;6.78;;;;;;;;;;5071753;28;20035;-84
2021/05/10 02:03:05;;;;;;;14.00;6.70;;;;;;;;;;5072756;28;20401;-83
2021/05/10 02:05:31;;;;;;;12.98;6.82;;;;;;;;;;5082584;28;20035;-84
2021/05/10 02:07:59;;;;;;;11.45;7.13;;;;;;;;;;5087678;28;20387;-85
2021/05/10 02:10:28;;;;;;;11.95;6.55;;;;;;;;;;5082464;28;20039;-82
2021/05/10 02:12:59;;;;;;;11.88;6.32;;;;;;;;;;5091722;28;20032;-83
2021/05/10 02:15:25;;;;;;;11.00;7.05;;;;;;;;;;5092120;28;20024;-83
2021/05/10 02:17:51;;;;;;;11.13;6.57;;;;;;;;;;5090998;28;20425;-84
2021/05/10 02:20:18;;;;;;;13.13;6.80;;;;;;;;;;5083555;28;20043;-84
2021/05/10 02:22:55;;;;;;;11.05;7.22;;;;;;;;;;5076783;28;20079;-83
2021/05/10 02:25:22;;;;;;;9.70;6.03;;;;;;;;;;5071271;28;20048;-84
2021/05/10 02:27:48;;;;;;;14.68;6.90;;;;;;;;;;5071515;28;20258;-84
2021/05/10 02:30:15;;;;;;;10.18;6.15;;;;;;;;;;5071203;28;20024;-83
2021/05/10 02:32:42;;;;;;;9.85;6.10;;;;;;;;;;5071328;28;20032;-84
2021/05/10 02:35:08;;;;;;;9.65;5.95;;;;;;;;;;5078396;28;20036;-85
2021/05/10 02:37:34;;;;;;;8.57;5.72;;;;;;;;;;5076230;28;20401;-83
2021/05/10 02:40:00;;;;;;;9.25;5.57;;;;;;;;;;5070663;28;20127;-84
2021/05/10 02:42:26;;;;;;;7.72;5.78;;;;;;;;;;5071605;28;20082;-83
2021/05/10 02:44:52;;;;;;;11.18;6.05;;;;;;;;;;5070839;28;20052;-84
2021/05/10 02:47:18;;;;;;;8.55;6.00;;;;;;;;;;5071313;28;20083;-82
2021/05/10 02:49:44;;;;;;;9.82;5.78;;;;;;;;;;5075821;28;20027;-84
2021/05/10 02:52:10;;;;;;;10.38;5.97;;;;;;;;;;5090351;28;20078;-84
2021/05/10 02:54:36;;;;;;;9.68;5.82;;;;;;;;;;5090613;28;20127;-84
2021/05/10 02:57:02;;;;;;;8.93;6.20;;;;;;;;;;5079774;28;20024;-83
2021/05/10 02:59:28;;;;;;;9.88;6.03;;;;;;;;;;5091155;28;20450;-84
2021/05/10 03:01:53;;;;;;;9.15;5.65;;;;;;;;;;5076994;28;20036;-86
2021/05/10 03:04:20;;;;;;;9.30;5.65;;;;;;;;;;5079964;28;20048;-85
2021/05/10 03:06:46;;;;;;;9.80;5.82;;;;;;;;;;5083799;28;20043;-83
2021/05/10 03:09:12;;;;;;;12.07;6.10;;;;;;;;;;5079763;28;20423;-84
2021/05/10 03:11:37;;;;;;;8.90;5.68;;;;;;;;;;5090789;28;20035;-84
2021/05/10 03:14:04;;;;;;;11.15;5.82;;;;;;;;;;5079970;28;20032;-83
2021/05/10 03:16:30;;;;;;;9.43;6.00;;;;;;;;;;5073334;28;20127;-83
2021/05/10 03:18:56;;;;;;;9.02;5.57;;;;;;;;;;5069521;28;20029;-84
2021/05/10 03:21:22;;;;;;;9.68;5.40;;;;;;;;;;5079796;28;20044;-84
2021/05/10 03:23:48;;;;;;;10.02;5.75;;;;;;;;;;5087226;28;20482;-83
2021/05/10 03:26:14;;;;;;;10.90;6.20;;;;;;;;;;5089076;28;20078;-82
2021/05/10 03:28:40;;;;;;;13.63;5.70;;;;;;;;;;5082830;28;20064;-85
2021/05/10 03:31:06;;;;;;;10.43;5.78;;;;;;;;;;5072907;28;20464;-85
2021/05/10 03:33:32;;;;;;;10.57;5.80;;;;;;;;;;5090810;28;20122;-86
2021/05/10 03:35:58;;;;;;;8.05;5.50;;;;;;;;;;5089189;28;20403;-86
2021/05/10 03:38:23;;;;;;;9.63;5.80;;;;;;;;;;5080350;28;20131;-84
2021/05/10 03:40:49;;;;;;;9.27;5.78;;;;;;;;;;5070701;28;20047;-83
2021/05/10 03:43:15;;;;;;;8.13;4.95;;;;;;;;;;5077537;28;20563;-84
2021/05/10 03:45:41;;;;;;;9.77;5.50;;;;;;;;;;5073864;28;20079;-84
2021/05/10 03:48:07;;;;;;;9.38;4.93;;;;;;;;;;5082886;28;20521;-85
2021/05/10 03:50:33;;;;;;;8.38;5.28;;;;;;;;;;5094769;28;20035;-84
2021/05/10 03:52:59;;;;;;;9.43;6.00;;;;;;;;;;5093256;28;20024;-83
2021/05/10 03:55:26;;;;;;;8.82;5.28;;;;;;;;;;5076158;28;20640;-84
2021/05/10 03:57:53;;;;;;;8.87;5.43;;;;;;;;;;5075974;28;20072;-83
2021/05/10 04:00:19;;;;;;;10.35;5.22;;;;;;;;;;5094524;28;20371;-82
2021/05/10 04:02:45;;;;;;;10.10;5.60;;;;;;;;;;5093631;28;20028;-83
2021/05/10 04:08:14;;;;;;;8.55;5.15;;;;;;;;;;5073900;28;20047;-81
2021/05/10 04:15:54;;;;;;;9.00;5.05;;;;;;;;;;5094312;28;20039;-82
2021/05/10 04:18:21;;;;;;;6.50;5.00;;;;;;;;;;5091960;28;20036;-81
2021/05/10 04:20:47;;;;;;;9.35;4.88;;;;;;;;;;5090009;28;20020;-82
2021/05/10 04:23:16;;;;;;;8.63;4.95;;;;;;;;;;5089499;28;20030;-82
2021/05/10 04:25:43;;;;;;;7.18;4.88;;;;;;;;;;5073399;28;20521;-82
2021/05/10 04:28:09;;;;;;;8.02;4.90;;;;;;;;;;5077220;28;20471;-82
2021/05/10 04:30:35;;;;;;;8.73;5.60;;;;;;;;;;5073899;28;20035;-83
2021/05/10 04:33:01;;;;;;;6.73;5.23;;;;;;;;;;5082028;28;20028;-84
2021/05/10 04:35:27;;;;;;;7.40;4.80;;;;;;;;;;5075581;28;20111;-83
2021/05/10 04:37:53;;;;;;;7.47;4.43;;;;;;;;;;5073587;28;20218;-82
2021/05/10 04:40:20;;;;;;;9.02;5.30;;;;;;;;;;5073454;28;20131;-84
2021/05/10 04:42:47;;;;;;;5.40;4.50;;;;;;;;;;5072065;28;20020;-85
2021/05/10 04:45:14;;;;;;;6.03;4.60;;;;;;;;;;5074468;28;20123;-86
2021/05/10 04:47:41;;;;;;;6.45;4.82;;;;;;;;;;5073562;28;20020;-83
2021/05/10 04:50:09;;;;;;;6.70;4.97;;;;;;;;;;5076218;28;20048;-82
2021/05/10 04:52:35;;;;;;;6.47;4.30;;;;;;;;;;5074223;28;20352;-80
2021/05/10 04:55:01;;;;;;;6.47;3.83;;;;;;;;;;5072439;28;20123;-78
2021/05/10 04:57:27;;;;;;;5.17;3.80;;;;;;;;;;5082907;28;20030;-79
2021/05/10 04:59:53;;;;;;;7.67;3.80;;;;;;;;;;5085669;28;20044;-79
2021/05/10 05:02:19;;;;;;;4.53;3.40;;;;;;;;;;5074689;28;20032;-82
2021/05/10 05:04:45;;;;;;;6.93;3.67;;;;;;;;;;5079838;28;20426;-80
2021/05/10 05:07:11;;;;;;;4.57;3.20;;;;;;;;;;5072768;28;20039;-79
2021/05/10 05:09:37;;;;;;;10.93;3.40;;;;;;;;;;5073331;28;20059;-84
2021/05/10 05:12:03;;;;;;;16.23;3.70;;;;;;;;;;5075611;28;20040;-84
2021/05/10 05:14:29;;;;;;;9.83;3.43;;;;;;;;;;5083447;28;20036;-85
2021/05/10 05:16:55;;;;;;;18.08;3.72;;;;;;;;;;5093229;28;20641;-84
2021/05/10 05:19:21;;;;;;;9.52;3.80;;;;;;;;;;5090209;28;20032;-87
2021/05/10 05:21:47;;;;;;;9.48;3.65;;;;;;;;;;5071961;28;20038;-78
2021/05/10 05:24:13;;;;;;;13.63;3.70;;;;;;;;;;5073095;28;20486;-86
2021/05/10 05:26:39;;;;;;;10.27;3.30;;;;;;;;;;5070377;28;20047;-88
2021/05/10 05:29:05;;;;;;;6.87;3.73;;;;;;;;;;5082816;28;20032;-87
2021/05/10 05:31:31;;;;;;;9.90;3.40;;;;;;;;;;5081278;28;20115;-90
2021/05/10 05:33:57;;;;;;;11.20;3.00;;;;;;;;;;5087753;28;20112;-85
2021/05/10 05:36:23;;;;;;;3.87;2.60;;;;;;;;;;5091402;28;20476;-85
2021/05/10 05:38:49;;;;;;;6.90;3.27;;;;;;;;;;5092459;28;20054;-85
2021/05/10 05:41:15;;;;;;;5.27;2.90;;;;;;;;;;5092559;28;20036;-86
2021/05/10 05:43:41;;;;;;;7.40;2.97;;;;;;;;;;5092008;28;20031;-85
2021/05/10 05:46:26;;;;;;;7.07;3.10;;;;;;;;;;5092117;28;20071;-84
2021/05/10 05:48:52;;;;;;;11.65;3.75;;;;;;;;;;5075299;28;20024;-83
2021/05/10 05:51:18;;;;;;;8.67;3.60;;;;;;;;;;5084729;28;20044;-86
2021/05/10 05:53:44;;;;;;;7.93;3.30;;;;;;;;;;5087179;28;20115;-86
2021/05/10 05:56:10;;;;;;;8.23;3.40;;;;;;;;;;5083271;28;20074;-86
2021/05/10 05:58:36;;;;;;;9.97;3.47;;;;;;;;;;5092074;28;20438;-85
2021/05/10 06:01:02;;;;;;;6.50;2.93;;;;;;;;;;5088126;27;20039;-86
2021/05/10 06:03:28;;;;;;;11.20;3.43;;;;;;;;;;5092007;28;20079;-86
2021/05/10 06:05:54;;;;;;;9.70;3.40;;;;;;;;;;5085087;28;20170;-86
2021/05/10 06:08:20;;;;;;;7.67;3.20;;;;;;;;;;5091345;28;20024;-86
2021/05/10 06:10:47;;;;;;;12.93;3.83;;;;;;;;;;5076004;28;20032;-85
2021/05/10 06:13:13;;;;;;;9.15;3.90;;;;;;;;;;5069735;28;20290;-85
2021/05/10 06:15:39;;;;;;;7.57;3.27;;;;;;;;;;5079626;28;20028;-84
2021/05/10 06:18:09;;;;;;;8.20;3.23;;;;;;;;;;5091741;28;20214;-85
2021/05/10 06:20:35;;;;;;;9.40;3.95;;;;;;;;;;5078176;28;20278;-85
2021/05/10 06:23:04;;;;;;;5.33;3.57;;;;;;;;;;5091057;28;20052;-87
2021/05/10 06:25:30;;;;;;;8.02;3.72;;;;;;;;;;5074995;28;20481;-76
2021/05/10 06:27:56;;;;;;;6.13;3.60;;;;;;;;;;5071124;28;20053;-74
2021/05/10 06:30:22;;;;;;;10.60;3.40;;;;;;;;;;5075923;28;20023;-74
2021/05/10 06:32:50;;;;;;;7.40;3.47;;;;;;;;;;5086836;28;20474;-75
2021/05/10 06:35:16;;;;;;;5.88;3.58;;;;;;;;;;5091392;28;20076;-75
2021/05/10 06:37:43;;;;;;;5.88;3.05;;;;;;;;;;5099834;28;20017;-79
2021/05/10 06:40:09;;;;;;;7.17;3.30;;;;;;;;;;5079689;28;20121;-80
2021/05/10 06:42:35;;;;;;;6.00;2.90;;;;;;;;;;5084119;28;20301;-81
2021/05/10 06:45:03;;;;;;;5.13;2.97;;;;;;;;;;5080277;28;20032;-82
2021/05/10 06:47:29;;;;;;;6.45;2.85;;;;;;;;;;5088155;28;20028;-81
2021/05/10 06:49:55;;;;;;;5.27;2.93;;;;;;;;;;5091055;28;20024;-82
2021/05/10 06:52:21;;;;;;;7.50;2.67;;;;;;;;;;5091076;28;20262;-80
2021/05/10 06:54:47;;;;;;;7.28;2.65;;;;;;;;;;5090645;28;20033;-81
2021/05/10 06:57:13;;;;;;;5.20;2.40;;;;;;;;;;5090944;28;20062;-80
2021/05/10 06:59:39;;;;;;;4.85;2.90;;;;;;;;;;5089861;28;20445;-81
2021/05/10 07:02:06;;;;;;;5.35;2.75;;;;;;;;;;5090690;28;20047;-82
2021/05/10 07:04:32;;;;;;;3.67;2.55;;;;;;;;;;5090561;28;20085;-81
2021/05/10 07:06:58;;;;;;;3.60;2.40;;;;;;;;;;5090569;28;20039;-81
2021/05/10 07:09:24;;;;;;;4.80;2.45;;;;;;;;;;5089007;28;20035;-81
2021/05/10 07:11:50;;;;;;;4.07;2.33;;;;;;;;;;5090246;28;20107;-81
2021/05/10 07:14:16;;;;;;;5.78;2.42;;;;;;;;;;5090208;28;20040;-81
2021/05/10 07:16:42;;;;;;;4.10;2.50;;;;;;;;;;5090583;28;20046;-81
2021/05/10 07:19:09;;;;;;;3.28;2.30;;;;;;;;;;5090250;28;20430;-82
2021/05/10 07:21:36;;;;;;;6.93;2.45;;;;;;;;;;5090586;28;20069;-81
2021/05/10 07:24:02;;;;;;;4.57;2.50;;;;;;;;;;5085201;28;20028;-82
2021/05/10 07:26:29;;;;;;;5.35;3.05;;;;;;;;;;5090503;28;20086;-81
2021/05/10 07:28:55;;;;;;;4.60;2.40;;;;;;;;;;5090755;28;20047;-80
2021/05/10 07:31:21;;;;;;;4.68;2.60;;;;;;;;;;5088403;28;20313;-80
2021/05/10 07:33:47;;;;;;;4.07;2.22;;;;;;;;;;5090397;28;20024;-81
2021/05/10 07:36:13;;;;;;;3.88;2.42;;;;;;;;;;5071970;28;20134;-80
2021/05/10 07:38:39;;;;;;;3.97;2.60;;;;;;;;;;5070285;28;20502;-80
2021/05/10 07:41:05;;;;;;;6.22;2.50;;;;;;;;;;5070602;28;20042;-81
2021/05/10 07:43:31;;;;;;;9.23;2.50;;;;;;;;;;5070746;28;20039;-81
2021/05/10 07:45:57;;;;;;;3.15;2.17;;;;;;;;;;5069577;28;20062;-81
2021/05/10 07:48:23;;;;;;;3.85;2.42;;;;;;;;;;5070108;28;20024;-80
2021/05/10 07:50:49;;;;;;;3.22;2.25;;;;;;;;;;5081666;28;20540;-81
2021/05/10 07:53:15;;;;;;;6.27;2.40;;;;;;;;;;5090444;28;20042;-80
2021/05/10 07:55:41;;;;;;;7.78;2.67;;;;;;;;;;5090142;28;20119;-80
2021/05/10 07:58:07;;;;;;;6.38;2.70;;;;;;;;;;5089604;28;20056;-80
2021/05/10 08:00:36;;;;;;;6.82;2.78;;;;;;;;;;5089218;28;20055;-81
2021/05/10 08:03:10;;;;;;;5.00;2.63;;;;;;;;;;5090196;28;20049;-80
2021/05/10 08:05:37;;;;;;;3.33;2.50;;;;;;;;;;5080244;28;20083;-80
2021/05/10 08:08:03;;;;;;;7.93;2.45;;;;;;;;;;5069785;28;20052;-81
2021/05/10 08:10:29;;;;;;;7.57;2.90;;;;;;;;;;5068740;28;20036;-81
2021/05/10 08:12:55;;;;;;;5.03;2.50;;;;;;;;;;5070413;28;20071;-81
2021/05/10 08:15:22;;;;;;;4.45;2.53;;;;;;;;;;5087076;28;20059;-81
2021/05/10 08:17:47;;;;;;;3.80;2.53;;;;;;;;;;5089790;28;20091;-81
2021/05/10 08:20:14;;;;;;;4.85;2.50;;;;;;;;;;5090478;28;20126;-81
2021/05/10 08:22:40;;;;;;;4.07;2.45;;;;;;;;;;5089151;28;20467;-80
2021/05/10 08:25:06;;;;;;;4.68;2.47;;;;;;;;;;5084678;28;20135;-80
2021/05/10 08:27:34;;;;;;;2.55;2.10;;;;;;;;;;5072731;28;20513;-83
2021/05/10 08:30:01;;;;;;;4.15;2.40;;;;;;;;;;5077455;28;20435;-87
2021/05/10 08:32:27;;;;;;;2.85;2.25;;;;;;;;;;5081117;28;20020;-88
2021/05/10 08:34:53;;;;;;;5.43;2.37;;;;;;;;;;5091092;28;20137;-85
2021/05/10 08:37:20;;;;;;;4.53;2.30;;;;;;;;;;5091062;28;20051;-84
2021/05/10 08:39:46;;;;;;;4.97;2.75;;;;;;;;;;5095692;28;20031;-84
2021/05/10 08:42:12;;;;;;;5.03;2.50;;;;;;;;;;5098241;28;20499;-84
2021/05/10 08:44:38;;;;;;;4.77;2.40;;;;;;;;;;5074836;28;20043;-85
2021/05/10 08:47:04;;;;;;;5.00;2.50;;;;;;;;;;5072754;28;20383;-85
2021/05/10 08:49:30;;;;;;;3.28;2.30;;;;;;;;;;5073148;28;20103;-82
2021/05/10 08:51:56;;;;;;;4.27;2.37;;;;;;;;;;5073120;28;20111;-82
2021/05/10 08:54:27;;;;;;;3.53;2.38;;;;;;;;;;5088329;28;20050;-81
2021/05/10 08:56:54;;;;;;;4.40;2.38;;;;;;;;;;5092111;28;20536;-82
2021/05/10 08:59:21;;;;;;;4.45;2.50;;;;;;;;;;5090808;28;20059;-78
2021/05/10 09:01:55;;;;;;;6.35;2.28;;;;;;;;;;5080152;28;20477;-80
2021/05/10 09:04:42;;;;;;;4.70;2.20;;;;;;;;;;5071451;28;20039;-80
2021/05/10 09:07:15;;;;;;;4.63;2.30;;;;;;;;;;5072262;28;20050;-80
2021/05/10 09:09:56;;;;;;;4.22;2.30;;;;;;;;;;5082160;28;20413;-78
2021/05/10 09:12:23;;;;;;;3.05;2.05;;;;;;;;;;5073906;28;20467;-77
2021/05/10 09:14:50;;;;;;;3.63;1.98;;;;;;;;;;5072730;28;20020;-78
2021/05/10 09:17:17;;;;;;;3.05;2.00;;;;;;;;;;5072335;28;20039;-80
2021/05/10 09:19:42;;;;;;;;;;;;;;;;;;5072888;28;20021;-78
2021/05/10 09:22:09;;;;;;;3.72;2.00;;;;;;;;;;5084599;28;20400;-82
2021/05/10 09:24:44;;;;;;;3.33;2.10;;;;;;;;;;5074384;28;20090;-82
2021/05/10 09:27:36;;;;;;;3.10;2.08;;;;;;;;;;5084376;28;20020;-85
2021/05/10 09:30:12;;;;;;;4.40;2.45;;;;;;;;;;5077103;28;20060;-79
2021/05/10 09:32:39;;;;;;;3.08;2.30;;;;;;;;;;5080738;28;20043;-77
2021/05/10 09:35:16;;;;;;;6.25;2.47;;;;;;;;;;5079834;28;20051;-79
2021/05/10 09:37:41;;;;;;;;;;;;;;;;;;5085194;28;20020;-80
2021/05/10 09:40:08;;;;;;;4.57;2.28;;;;;;;;;;5072613;28;19908;-80
2021/05/10 09:42:52;;;;;;;2.78;2.10;;;;;;;;;;5072920;28;20481;-83
2021/05/10 09:45:28;;;;;;;3.50;2.30;;;;;;;;;;5091519;28;20051;-79
2021/05/10 09:48:07;;;;;;;3.42;2.33;;;;;;;;;;5092216;28;20020;-79
2021/05/10 09:50:34;;;;;;;3.47;2.20;;;;;;;;;;5091895;28;20047;-79
2021/05/10 09:53:01;;;;;;;3.65;2.08;;;;;;;;;;5082010;28;20016;-77
2021/05/10 09:55:48;;;;;;;2.85;2.05;;;;;;;;;;5072396;28;20029;-80
2021/05/10 09:58:15;;;;;;;5.93;2.38;;;;;;;;;;5088922;28;20079;-80
2021/05/10 10:00:42;;;;;;;3.47;2.30;;;;;;;;;;5091673;28;20058;-79
2021/05/10 10:03:27;;;;;;;5.15;2.17;;;;;;;;;;5082104;28;20107;-81
2021/05/10 10:05:55;;;;;;;4.72;2.47;;;;;;;;;;5086793;28;20058;-80
2021/05/10 10:08:21;;;;;;;3.97;2.25;;;;;;;;;;5070421;28;20025;-79
2021/05/10 10:10:47;;;;;;;4.00;2.17;;;;;;;;;;5075125;28;20123;-80
2021/05/10 10:13:17;;;;;;;5.80;2.50;;;;;;;;;;5075271;28;20520;-79
2021/05/10 10:15:44;;;;;;;7.40;2.22;;;;;;;;;;5071016;28;20119;-81
2021/05/10 10:18:11;;;;;;;5.93;2.70;;;;;;;;;;5071432;28;20533;-80
2021/05/10 10:20:37;;;;;;;6.22;3.50;;;;;;;;;;5085912;28;20123;-81
2021/05/10 10:23:04;;;;;;;9.25;3.85;;;;;;;;;;5072294;28;20016;-81
2021/05/10 10:25:30;;;;;;;;;;;;;;;;;;5071721;28;20051;-76
2021/05/10 10:27:57;;;;;;;11.90;5.40;;;;;;;;;;5069044;28;19912;-78
2021/05/10 10:30:24;;;;;;;7.88;4.68;;;;;;;;;;5080217;28;20036;-78
2021/05/10 10:32:50;;;;;;;12.55;5.00;;;;;;;;;;5069874;28;20225;-77
2021/05/10 10:35:17;;;;;;;9.82;4.53;;;;;;;;;;5069682;28;20036;-77
2021/05/10 10:37:44;;;;;;;9.10;4.53;;;;;;;;;;5070715;28;20039;-76
2021/05/10 10:40:17;;;;;;;12.02;4.60;;;;;;;;;;5071839;28;20037;-78
2021/05/10 10:42:43;;;;;;;7.07;3.90;;;;;;;;;;5090191;28;20035;-77
2021/05/10 10:45:11;;;;;;;8.00;4.13;;;;;;;;;;5074855;28;20049;-77
2021/05/10 10:47:44;;;;;;;9.05;3.75;;;;;;;;;;5069577;28;20074;-76
2021/05/10 10:50:15;;;;;;;15.05;3.70;;;;;;;;;;5073218;28;20036;-78
2021/05/10 10:52:55;;;;;;;7.63;3.60;;;;;;;;;;5080858;28;20334;-80
2021/05/10 10:55:24;;;;;;;10.05;3.75;;;;;;;;;;5089001;28;20062;-79
2021/05/10 10:57:50;;;;;;;7.70;3.33;;;;;;;;;;5090490;28;20020;-79
2021/05/10 11:00:18;;;;;;;11.77;3.50;;;;;;;;;;5083156;28;20082;-80
2021/05/10 11:02:50;;;;;;;6.82;3.10;;;;;;;;;;5070368;28;20036;-79
2021/05/10 11:05:19;;;;;;;8.55;3.58;;;;;;;;;;5070994;28;20067;-78
2021/05/10 11:07:47;;;;;;;8.82;3.22;;;;;;;;;;5079978;28;20055;-77
2021/05/10 11:10:33;;;;;;;5.85;2.90;;;;;;;;;;5089905;28;20028;-77
2021/05/10 11:12:59;;;;;;;6.30;3.00;;;;;;;;;;5070284;28;20036;-76
2021/05/10 11:15:38;;;;;;;11.27;3.38;;;;;;;;;;5073850;28;20038;-82
2021/05/10 11:18:07;;;;;;;5.13;3.00;;;;;;;;;;5085944;28;20028;-81
2021/05/10 11:20:40;;;;;;;6.72;3.42;;;;;;;;;;5092241;28;20470;-83
2021/05/10 11:23:24;;;;;;;7.15;2.78;;;;;;;;;;5086031;28;20549;-78
2021/05/10 11:25:54;;;;;;;7.78;3.20;;;;;;;;;;5078757;28;20124;-77
2021/05/10 11:28:27;;;;;;;5.35;3.20;;;;;;;;;;5090271;28;20047;-81
2021/05/10 11:30:59;;;;;;;6.00;2.88;;;;;;;;;;5080321;28;20544;-77
2021/05/10 11:33:44;;;;;;;6.78;2.92;;;;;;;;;;5070040;28;20047;-77
2021/05/10 11:36:19;;;;;;;5.25;3.10;;;;;;;;;;5070429;28;20028;-78
2021/05/10 11:38:51;;;;;;;4.68;2.90;;;;;;;;;;5070329;28;20402;-78
2021/05/10 11:41:17;;;;;;;7.30;3.20;;;;;;;;;;5076028;28;20093;-77
2021/05/10 11:43:43;;;;;;;5.40;3.03;;;;;;;;;;5089771;28;20486;-78
2021/05/10 11:46:09;;;;;;;5.80;3.13;;;;;;;;;;5089828;28;20048;-78
2021/05/10 11:48:42;;;;;;;4.78;3.00;;;;;;;;;;5090370;28;20039;-78
2021/05/10 11:51:21;;;;;;;8.02;3.10;;;;;;;;;;5070673;28;20050;-78
2021/05/10 11:53:47;;;;;;;8.13;3.40;;;;;;;;;;5069657;28;20517;-77
2021/05/10 11:56:24;;;;;;;5.88;3.08;;;;;;;;;;5069992;28;20099;-78
2021/05/10 11:59:08;;;;;;;7.72;3.42;;;;;;;;;;5070133;28;20025;-78
2021/05/10 12:01:35;;;;;;;8.32;3.55;;;;;;;;;;5069800;28;20458;-78
2021/05/10 12:04:21;;;;;;;5.72;2.88;;;;;;;;;;5070535;28;20044;-77
2021/05/10 12:06:47;;;;;;;7.45;2.85;;;;;;;;;;5073294;28;20052;-78
2021/05/10 12:09:32;;;;;;;7.60;3.30;;;;;;;;;;5074373;28;20087;-77
2021/05/10 12:11:59;;;;;;;4.80;2.95;;;;;;;;;;5073678;28;20025;-77
2021/05/10 12:14:25;;;;;;;5.45;3.30;;;;;;;;;;5073278;28;20066;-77
2021/05/10 12:17:24;;;;;;;6.47;3.53;;;;;;;;;;5074309;28;20028;-77
2021/05/10 12:19:54;;;;;;;8.43;3.20;;;;;;;;;;5077223;28;20501;-77
2021/05/10 12:22:20;;;;;;;6.68;3.10;;;;;;;;;;5079897;28;20051;-77
2021/05/10 12:25:04;;;;;;;5.50;2.70;;;;;;;;;;5090577;28;20302;-77
2021/05/10 12:27:41;;;;;;;4.25;2.78;;;;;;;;;;5072114;28;20056;-78
2021/05/10 12:30:11;;;;;;;7.07;3.10;;;;;;;;;;5073376;28;20020;-77
2021/05/10 12:32:38;;;;;;;6.30;3.20;;;;;;;;;;5073121;28;20409;-78
2021/05/10 12:35:04;;;;;;;7.22;3.17;;;;;;;;;;5072849;28;20094;-78
2021/05/10 12:37:30;;;;;;;8.45;3.60;;;;;;;;;;5073154;28;20035;-77
2021/05/10 12:40:06;;;;;;;6.80;3.23;;;;;;;;;;5078415;28;20024;-78
2021/05/10 12:42:32;;;;;;;5.60;3.00;;;;;;;;;;5077974;28;20474;-77
2021/05/10 12:45:04;;;;;;;10.70;3.30;;;;;;;;;;5089173;28;20777;-80
2021/05/10 12:47:40;;;;;;;9.07;3.08;;;;;;;;;;5088713;28;20044;-78
2021/05/10 12:50:06;;;;;;;9.80;3.30;;;;;;;;;;5089679;28;20035;-78
2021/05/10 12:52:45;;;;;;;7.22;3.30;;;;;;;;;;5073942;28;20091;-78
2021/05/10 12:55:18;;;;;;;7.25;3.00;;;;;;;;;;5081347;28;20028;-79
2021/05/10 12:57:44;;;;;;;5.88;3.00;;;;;;;;;;5075872;28;20124;-78
2021/05/10 13:00:25;;;;;;;10.17;2.93;;;;;;;;;;5072546;28;20025;-79
2021/05/10 13:02:51;;;;;;;6.63;3.10;;;;;;;;;;5075594;28;20112;-78
2021/05/10 13:05:29;;;;;;;6.83;3.37;;;;;;;;;;5079993;28;20056;-78
2021/05/10 13:07:56;;;;;;;6.78;3.28;;;;;;;;;;5092352;28;20021;-78
2021/05/10 13:10:22;;;;;;;7.25;3.05;;;;;;;;;;5092404;28;20584;-78
2021/05/10 13:12:48;;;;;;;7.68;3.50;;;;;;;;;;5092595;28;20035;-79
2021/05/10 13:15:29;;;;;;;6.55;2.80;;;;;;;;;;5085616;28;20440;-79
2021/05/10 13:18:10;;;;;;;5.38;2.70;;;;;;;;;;5086184;28;20421;-79
2021/05/10 13:36:26;;;;;;;5.72;2.75;;;;;;;;;;5074709;28;20040;-77
2021/05/10 13:38:52;;;;;;;5.20;3.17;;;;;;;;;;5078127;28;20021;-77
2021/05/10 13:41:21;;;;;;;6.60;2.85;;;;;;;;;;5074376;28;20024;-78
2021/05/10 13:43:57;;;;;;;5.15;2.63;;;;;;;;;;5078644;28;20041;-78
2021/05/10 13:46:24;;;;;;;6.35;3.17;;;;;;;;;;5073499;28;20048;-79
2021/05/10 13:48:50;;;;;;;3.50;2.60;;;;;;;;;;5072140;28;20546;-78
2021/05/10 13:51:16;;;;;;;5.07;2.92;;;;;;;;;;5071807;28;20033;-79
2021/05/10 13:53:42;;;;;;;6.70;3.00;;;;;;;;;;5071438;28;20021;-78
2021/05/10 13:56:08;;;;;;;5.72;3.30;;;;;;;;;;5077851;28;20090;-78
2021/05/10 13:58:36;;;;;;;6.73;3.20;;;;;;;;;;5091790;28;20126;-77
2021/05/10 14:01:02;;;;;;;5.50;3.30;;;;;;;;;;5099610;28;20028;-78
2021/05/10 14:03:28;;;;;;;10.27;3.67;;;;;;;;;;5071230;28;20168;-79
2021/05/10 14:05:54;;;;;;;5.07;3.22;;;;;;;;;;5071675;28;20028;-79
2021/05/10 14:08:20;;;;;;;6.32;3.15;;;;;;;;;;5077935;28;20047;-77
2021/05/10 14:10:46;;;;;;;5.72;3.58;;;;;;;;;;5091766;28;20047;-78
2021/05/10 14:13:12;;;;;;;5.53;3.17;;;;;;;;;;5091074;28;20039;-79
2021/05/10 14:15:39;;;;;;;4.15;3.05;;;;;;;;;;5091695;28;20470;-78
2021/05/10 14:18:09;;;;;;;5.38;3.17;;;;;;;;;;5090029;28;20028;-77
2021/05/10 14:23:20;;;;;;;4.68;3.10;;;;;;;;;;5081706;28;20047;-76
2021/05/10 14:25:46;;;;;;;5.00;3.43;;;;;;;;;;5071227;28;20025;-78
2021/05/10 14:28:12;;;;;;;7.15;3.08;;;;;;;;;;5070576;28;20036;-78
2021/05/10 14:30:38;;;;;;;5.77;3.13;;;;;;;;;;5094662;28;20046;-78
2021/05/10 14:33:04;;;;;;;5.70;3.20;;;;;;;;;;5101645;28;20266;-78
2021/05/10 14:35:30;;;;;;;6.10;2.90;;;;;;;;;;5070900;28;20029;-77
2021/05/10 14:37:57;;;;;;;6.90;3.03;;;;;;;;;;5079691;27;20032;-77
2021/05/10 14:40:23;;;;;;;8.05;3.40;;;;;;;;;;5111353;28;20461;-77
2021/05/10 14:42:49;;;;;;;6.43;3.10;;;;;;;;;;5111251;28;20105;-77
2021/05/10 14:45:15;;;;;;;6.97;3.17;;;;;;;;;;5111378;28;20135;-77
2021/05/10 14:47:41;;;;;;;4.73;3.23;;;;;;;;;;5104163;27;20038;-77
2021/05/10 14:50:07;;;;;;;7.23;3.03;;;;;;;;;;5069563;28;20045;-81
2021/05/10 14:52:34;;;;;;;7.50;3.20;;;;;;;;;;5083153;28;20031;-82
2021/05/10 14:54:59;;;;;;;8.67;3.20;;;;;;;;;;5091419;28;20028;-82
2021/05/10 14:57:25;;;;;;;4.63;2.75;;;;;;;;;;5086590;28;20031;-82
2021/05/10 14:59:51;;;;;;;5.32;2.83;;;;;;;;;;5083770;28;20135;-82
2021/05/10 15:02:18;;;;;;;5.63;2.95;;;;;;;;;;5070893;28;20074;-80
2021/05/10 15:04:43;;;;;;;7.83;3.00;;;;;;;;;;5100056;28;20105;-84
2021/05/10 15:07:10;;;;;;;7.97;2.90;;;;;;;;;;5090959;28;20056;-78
2021/05/10 15:09:36;;;;;;;10.98;3.03;;;;;;;;;;5090678;28;20032;-80
2021/05/10 15:12:02;;;;;;;8.23;3.27;;;;;;;;;;5087054;28;20043;-77